Aviation Digital Data Service (ADDS)

Output produced by METARs form (0513 UTC 28 March 2015)
found at http://aviationweather.gov/adds/metars/
 
KBFD 280328Z 2803/2824 30011KT 4SM -SN OVC016 
     TEMPO 2803/2805 2SM -SN OVC015 
     FM281100 35010KT 5SM BR OVC025 
     FM281600 32013G19KT P6SM OVC035